Time;durP1;ratioP1;P1;durP2;ratioP2;P2;SDS_P1;SDS_P2;PMS_P1;PMS_P2;Temp;Humidity;BMP_temperature;BMP_pressure;BME280_temperature;BME280_humidity;BME280_pressure;Samples;Min_cycle;Max_cycle;Signal;HPM_P1;HPM_P2
2022/04/24 00:18:43;;;;;;;5.93;5.43;;;13.00;81.30;;;;;;5038502;28;20179;-80
2022/04/24 00:21:13;;;;;;;6.25;5.65;;;13.00;81.50;;;;;;5048152;28;20214;-80
2022/04/24 00:23:41;;;;;;;6.00;5.50;;;13.00;81.40;;;;;;5028672;28;20657;-80
2022/04/24 00:26:09;;;;;;;6.63;5.78;;;13.00;81.30;;;;;;5031493;28;20237;-80
2022/04/24 00:28:52;;;;;;;6.03;5.53;;;13.10;81.40;;;;;;5045334;28;20199;-80
2022/04/24 00:31:19;;;;;;;6.00;5.50;;;12.80;82.30;;;;;;5031400;28;20239;-80
2022/04/24 00:34:05;;;;;;;6.43;5.90;;;13.00;82.70;;;;;;5045988;28;20211;-80
2022/04/24 00:36:55;;;;;;;6.63;6.13;;;12.90;83.50;;;;;;5038328;28;20206;-80
2022/04/24 00:39:45;;;;;;;6.68;6.07;;;12.70;85.00;;;;;;5047496;28;20210;-80
2022/04/24 00:46:32;;;;;;;6.50;5.90;;;12.70;86.00;;;;;;5035738;28;20516;-80
2022/04/24 00:52:23;;;;;;;6.85;6.25;;;12.60;86.80;;;;;;5048790;28;20217;-80
2022/04/24 00:54:52;;;;;;;7.22;6.63;;;12.60;87.40;;;;;;5036782;28;20199;-80
2022/04/24 00:57:20;;;;;;;7.50;6.90;;;12.60;87.40;;;;;;5037499;28;20258;-80
2022/04/24 00:59:47;;;;;;;6.80;6.20;;;12.60;88.10;;;;;;5050518;28;20199;-81
2022/04/24 01:02:15;;;;;;;7.57;6.90;;;12.70;88.50;;;;;;5034776;28;20695;-81
2022/04/24 01:04:42;;;;;;;7.32;6.72;;;12.80;88.00;;;;;;5028033;28;20242;-80
2022/04/24 01:07:10;;;;;;;7.22;6.63;;;12.80;87.80;;;;;;5023223;28;20203;-80
2022/04/24 01:09:38;;;;;;;7.20;6.60;;;12.90;87.30;;;;;;5055321;28;20199;-80
2022/04/24 01:12:08;;;;;;;7.20;6.60;;;13.00;87.10;;;;;;5031549;28;20212;-80
2022/04/24 01:14:36;;;;;;;7.20;6.55;;;12.90;86.80;;;;;;5048755;28;20210;-80
2022/04/24 01:17:06;;;;;;;7.53;6.85;;;12.90;87.00;;;;;;5027182;28;20222;-80
2022/04/24 01:19:34;;;;;;;7.40;6.80;;;12.70;87.70;;;;;;5032209;28;20210;-80
2022/04/24 01:22:03;;;;;;;7.03;6.53;;;12.60;88.50;;;;;;5025759;28;20231;-80
2022/04/24 01:24:30;;;;;;;6.90;6.38;;;12.30;89.70;;;;;;5031334;28;20197;-80
2022/04/24 01:26:58;;;;;;;7.55;6.85;;;12.50;90.00;;;;;;5035039;28;20206;-80
2022/04/24 01:29:26;;;;;;;7.55;6.95;;;12.60;90.00;;;;;;5032642;28;20199;-80
2022/04/24 01:31:53;;;;;;;6.45;5.95;;;12.50;89.90;;;;;;5032159;28;20689;-80
2022/04/24 01:34:21;;;;;;;7.73;7.03;;;12.50;89.70;;;;;;5049552;28;20194;-80
2022/04/24 01:36:48;;;;;;;8.00;6.70;;;12.10;90.30;;;;;;5025674;28;20206;-80
2022/04/24 01:39:17;;;;;;;7.75;7.15;;;11.90;90.70;;;;;;5044304;28;20203;-80
2022/04/24 01:41:45;;;;;;;7.88;7.18;;;11.90;91.70;;;;;;5027647;28;20219;-80
2022/04/24 01:44:13;;;;;;;8.13;7.43;;;11.80;92.10;;;;;;5048046;28;20206;-80
2022/04/24 01:46:40;;;;;;;7.40;6.80;;;11.80;92.30;;;;;;5038367;28;20196;-80
2022/04/24 01:49:08;;;;;;;7.78;7.18;;;11.80;92.50;;;;;;5032239;28;20198;-80
2022/04/24 01:51:36;;;;;;;7.90;7.20;;;11.90;92.40;;;;;;5026137;28;20231;-79
2022/04/24 01:54:03;;;;;;;7.63;6.93;;;11.90;92.30;;;;;;5036135;28;20191;-80
2022/04/24 01:56:32;;;;;;;8.13;7.43;;;12.00;92.30;;;;;;5029999;28;20218;-79
2022/04/24 01:58:59;;;;;;;8.20;7.50;;;12.00;92.20;;;;;;5037896;28;20202;-79
2022/04/24 02:01:27;;;;;;;7.70;7.00;;;11.70;92.40;;;;;;5026103;28;20221;-80
2022/04/24 02:03:57;;;;;;;8.05;7.35;;;11.40;93.20;;;;;;5033052;28;20195;-79
2022/04/24 02:06:24;;;;;;;8.73;7.10;;;11.60;93.40;;;;;;5046571;28;20203;-79
2022/04/24 02:08:52;;;;;;;7.63;6.83;;;11.90;92.90;;;;;;5048722;28;20206;-79
2022/04/24 02:11:19;;;;;;;7.50;6.90;;;12.10;92.60;;;;;;5042320;28;20226;-80
2022/04/24 02:13:48;;;;;;;8.40;7.67;;;12.20;92.10;;;;;;5030896;28;20203;-79
2022/04/24 02:16:18;;;;;;;8.30;7.50;;;12.20;91.80;;;;;;5029027;28;20199;-79
2022/04/24 02:18:45;;;;;;;11.13;7.88;;;12.10;91.80;;;;;;5030911;28;20198;-79
2022/04/24 02:21:16;;;;;;;7.50;6.90;;;11.90;92.10;;;;;;5048053;28;20712;-79
2022/04/24 02:23:43;;;;;;;7.80;7.20;;;11.80;92.70;;;;;;5043523;28;20210;-79
2022/04/24 02:26:11;;;;;;;7.90;7.20;;;11.80;93.00;;;;;;5036346;28;20203;-79
2022/04/24 02:28:38;;;;;;;7.80;7.20;;;11.80;92.90;;;;;;5046934;28;20561;-79
2022/04/24 02:31:10;;;;;;;8.10;7.40;;;11.90;92.70;;;;;;5031769;28;20591;-79
2022/04/24 02:33:38;;;;;;;8.07;7.37;;;12.00;92.80;;;;;;5028983;28;20199;-79
2022/04/24 02:36:05;;;;;;;8.40;7.70;;;12.00;92.60;;;;;;5042006;28;20202;-79
2022/04/24 02:38:33;;;;;;;7.57;6.87;;;11.90;92.60;;;;;;5045446;28;20198;-79
2022/04/24 02:41:03;;;;;;;8.20;7.50;;;11.90;92.80;;;;;;5031619;28;20229;-79
2022/04/24 02:43:31;;;;;;;8.00;7.23;;;11.80;92.80;;;;;;5053673;28;20194;-79
2022/04/24 02:45:58;;;;;;;8.67;7.97;;;11.90;93.20;;;;;;5050491;28;20195;-79
2022/04/24 02:48:27;;;;;;;9.10;8.20;;;11.70;93.00;;;;;;5035418;28;20203;-79
2022/04/24 02:50:55;;;;;;;9.43;8.53;;;11.20;94.10;;;;;;5032504;28;20234;-79
2022/04/24 02:53:25;;;;;;;9.13;8.20;;;11.10;95.10;;;;;;5031397;28;20199;-79
2022/04/24 02:55:53;;;;;;;9.37;8.57;;;11.30;94.90;;;;;;5042204;28;20213;-79
2022/04/24 02:58:21;;;;;;;8.57;7.67;;;11.40;94.60;;;;;;5029202;28;20561;-79
2022/04/24 03:00:50;;;;;;;9.17;8.37;;;11.30;95.00;;;;;;5025538;28;20215;-79
2022/04/24 03:03:19;;;;;;;10.00;9.00;;;11.30;95.00;;;;;;5035327;28;20195;-79
2022/04/24 03:05:49;;;;;;;10.20;9.40;;;11.10;95.60;;;;;;5038482;28;20202;-79
2022/04/24 03:08:50;;;;;;;9.20;8.30;;;11.10;95.70;;;;;;5020669;28;20210;-79
2022/04/24 03:11:17;;;;;;;8.63;7.93;;;11.20;95.70;;;;;;5027995;28;20218;-79
2022/04/24 03:13:45;;;;;;;9.07;8.20;;;11.30;95.90;;;;;;5050725;28;20222;-80
2022/04/24 03:16:12;;;;;;;9.90;9.00;;;11.10;96.00;;;;;;5049789;28;20222;-80
2022/04/24 03:18:40;;;;;;;10.40;8.80;;;11.10;96.00;;;;;;5051245;28;20194;-80
2022/04/24 03:21:09;;;;;;;9.30;8.50;;;11.00;96.50;;;;;;5054369;28;20223;-80
2022/04/24 03:23:36;;;;;;;10.40;9.40;;;11.10;96.20;;;;;;5034090;28;20270;-80
2022/04/24 03:26:04;;;;;;;10.10;9.20;;;11.00;96.30;;;;;;5037912;28;20202;-80
2022/04/24 03:28:31;;;;;;;10.13;9.23;;;11.00;96.70;;;;;;5037749;28;20202;-80
2022/04/24 03:30:58;;;;;;;10.93;8.87;;;11.10;96.40;;;;;;5039262;28;20222;-80
2022/04/24 03:33:30;;;;;;;9.70;8.67;;;11.20;96.20;;;;;;5053151;28;20207;-80
2022/04/24 03:35:58;;;;;;;8.93;8.23;;;11.10;96.60;;;;;;5061708;28;20202;-79
2022/04/24 03:38:26;;;;;;;10.80;9.73;;;10.90;97.00;;;;;;5042032;28;20203;-80
2022/04/24 03:40:54;;;;;;;10.43;9.43;;;10.90;97.10;;;;;;5037728;28;20212;-80
2022/04/24 03:43:23;;;;;;;10.33;9.33;;;10.90;97.20;;;;;;5036796;28;20198;-80
2022/04/24 03:45:50;;;;;;;10.40;9.50;;;11.00;97.20;;;;;;5039669;28;20214;-80
2022/04/24 03:48:18;;;;;;;11.07;10.07;;;10.90;97.30;;;;;;5058436;28;20225;-80
2022/04/24 03:50:47;;;;;;;10.73;9.73;;;10.80;97.70;;;;;;5054782;28;20910;-80
2022/04/24 03:53:14;;;;;;;10.33;9.43;;;10.60;98.40;;;;;;5060227;28;20292;-80
2022/04/24 03:55:43;;;;;;;9.80;9.00;;;10.80;98.00;;;;;;5055579;28;20661;-79
2022/04/24 03:58:10;;;;;;;9.60;8.60;;;10.80;98.10;;;;;;5041314;28;20195;-79
2022/04/24 04:00:38;;;;;;;10.13;9.20;;;10.80;98.10;;;;;;5035169;28;20229;-80
2022/04/24 04:03:06;;;;;;;10.70;9.70;;;10.80;98.00;;;;;;5057083;28;20194;-79
2022/04/24 04:05:37;;;;;;;10.30;9.27;;;10.80;97.90;;;;;;5052060;28;20199;-79
2022/04/24 04:08:08;;;;;;;11.17;10.17;;;10.60;98.70;;;;;;5051892;28;20209;-80
2022/04/24 04:10:35;;;;;;;10.73;9.73;;;10.40;99.00;;;;;;5039289;28;20227;-80
2022/04/24 04:13:07;;;;;;;10.37;9.37;;;10.50;99.10;;;;;;5044935;28;20226;-80
2022/04/24 04:15:35;;;;;;;10.23;9.20;;;10.40;99.60;;;;;;5043287;28;20206;-80
2022/04/24 04:18:02;;;;;;;10.07;8.87;;;10.10;99.90;;;;;;5055967;28;20195;-80
2022/04/24 04:20:30;;;;;;;10.30;9.30;;;10.20;99.90;;;;;;5058364;28;20234;-79
2022/04/24 04:22:58;;;;;;;9.73;8.83;;;10.30;99.90;;;;;;5043426;28;20183;-80
2022/04/24 04:25:26;;;;;;;9.63;8.83;;;10.50;99.90;;;;;;5041759;28;20207;-80
2022/04/24 04:27:54;;;;;;;10.33;9.17;;;10.40;99.90;;;;;;5040970;28;20271;-79
2022/04/24 04:30:23;;;;;;;10.67;9.67;;;10.50;99.90;;;;;;5051210;28;20218;-79
2022/04/24 04:32:53;;;;;;;11.13;8.80;;;10.40;99.90;;;;;;5055290;28;20215;-79
2022/04/24 04:35:23;;;;;;;9.40;8.50;;;10.20;99.90;;;;;;5055274;28;20198;-78
2022/04/24 04:37:52;;;;;;;10.23;8.67;;;10.30;99.90;;;;;;5034678;28;20203;-78
2022/04/24 04:40:20;;;;;;;8.87;8.00;;;10.00;99.90;;;;;;5033887;28;20215;-78
2022/04/24 04:42:49;;;;;;;9.30;8.40;;;9.90;99.90;;;;;;5038071;28;20195;-78
2022/04/24 04:45:17;;;;;;;9.03;8.10;;;10.00;99.90;;;;;;5035025;28;20210;-78
2022/04/24 04:47:49;;;;;;;8.57;7.77;;;9.80;99.90;;;;;;5051196;28;20207;-79
2022/04/24 04:50:16;;;;;;;8.27;7.43;;;9.90;99.90;;;;;;5039556;28;20233;-79
2022/04/24 04:52:44;;;;;;;9.53;8.63;;;10.20;99.90;;;;;;5035436;28;20230;-79
2022/04/24 04:55:15;;;;;;;9.60;8.70;;;10.10;99.90;;;;;;5035196;28;20183;-80
2022/04/24 04:57:43;;;;;;;8.10;7.30;;;10.20;99.90;;;;;;5050846;28;20198;-82
2022/04/24 05:00:13;;;;;;;8.30;7.50;;;11.20;99.90;;;;;;5048851;28;20226;-81
2022/04/24 05:02:50;;;;;;;7.90;7.10;;;11.60;98.30;;;;;;5050882;28;20203;-81
2022/04/24 05:05:18;;;;;;;10.50;8.70;;;11.70;99.50;;;;;;5042501;28;20191;-80
2022/04/24 05:07:45;;;;;;;9.43;7.77;;;12.00;96.60;;;;;;5034027;28;20199;-81
2022/04/24 05:10:16;;;;;;;8.50;7.70;;;11.30;97.20;;;;;;5032955;28;20230;-82
2022/04/24 05:12:43;;;;;;;8.07;7.27;;;10.90;98.20;;;;;;5029911;28;20221;-81
2022/04/24 05:15:14;;;;;;;8.37;7.40;;;10.50;99.80;;;;;;5028990;28;20206;-79
2022/04/24 05:17:44;;;;;;;9.20;8.30;;;10.50;99.90;;;;;;5024756;28;20203;-78
2022/04/24 05:20:14;;;;;;;8.43;7.63;;;10.50;99.90;;;;;;5045224;28;20218;-80
2022/04/24 05:22:42;;;;;;;7.50;6.80;;;10.60;99.90;;;;;;5044376;28;20187;-80
2022/04/24 05:25:12;;;;;;;8.33;7.53;;;10.70;99.90;;;;;;5034040;28;20195;-81
2022/04/24 05:27:44;;;;;;;8.90;7.53;;;10.80;99.60;;;;;;5045657;28;20206;-80
2022/04/24 05:30:14;;;;;;;7.90;7.10;;;10.70;99.90;;;;;;5022337;28;20219;-81
2022/04/24 05:32:46;;;;;;;7.87;7.13;;;10.70;99.50;;;;;;5045471;28;20222;-80
2022/04/24 05:35:16;;;;;;;7.60;6.93;;;10.70;99.90;;;;;;5051016;28;20199;-81
2022/04/24 05:37:46;;;;;;;8.23;7.43;;;10.90;99.40;;;;;;5031333;28;20203;-81
2022/04/24 05:40:13;;;;;;;8.07;7.27;;;10.80;99.40;;;;;;5030141;28;20720;-81
2022/04/24 05:42:49;;;;;;;8.00;7.20;;;10.80;99.40;;;;;;5047965;28;20199;-80
2022/04/24 05:45:22;;;;;;;7.77;7.07;;;11.00;99.10;;;;;;5031288;28;20202;-81
2022/04/24 05:47:50;;;;;;;7.90;7.20;;;11.00;98.90;;;;;;5052288;28;20206;-80
2022/04/24 05:50:24;;;;;;;8.07;7.30;;;11.00;98.80;;;;;;5050834;28;20230;-80
2022/04/24 05:52:55;;;;;;;8.43;7.13;;;11.00;98.70;;;;;;5026039;28;20218;-82
2022/04/24 05:55:22;;;;;;;8.37;7.30;;;10.80;99.00;;;;;;5033014;28;20207;-80
2022/04/24 05:57:51;;;;;;;8.40;7.63;;;10.90;99.30;;;;;;5031756;28;20191;-83
2022/04/24 06:00:19;;;;;;;8.23;7.43;;;10.90;99.50;;;;;;5047357;28;20677;-81
2022/04/24 06:02:48;;;;;;;8.10;7.10;;;11.00;99.00;;;;;;5048070;28;20194;-82
2022/04/24 06:05:27;;;;;;;8.40;7.03;;;11.00;98.70;;;;;;5031802;28;20195;-81
2022/04/24 06:07:55;;;;;;;7.67;6.90;;;11.10;99.10;;;;;;5042082;28;20198;-82
2022/04/24 06:10:23;;;;;;;7.57;6.87;;;11.40;99.10;;;;;;5047031;28;20564;-80
2022/04/24 06:12:51;;;;;;;8.13;7.23;;;11.40;98.10;;;;;;5031580;28;20245;-81
2022/04/24 06:15:21;;;;;;;8.20;7.40;;;11.30;98.00;;;;;;5033206;28;20203;-81
2022/04/24 06:17:52;;;;;;;7.93;7.17;;;11.30;98.20;;;;;;5048004;28;21172;-81
2022/04/24 06:20:21;;;;;;;7.63;6.90;;;11.30;98.00;;;;;;5044118;28;20261;-80
2022/04/24 06:22:51;;;;;;;7.90;7.00;;;11.40;98.10;;;;;;5040476;28;20195;-80
2022/04/24 06:25:20;;;;;;;8.30;7.50;;;11.30;98.20;;;;;;5046190;28;20198;-80
2022/04/24 06:27:52;;;;;;;8.13;7.33;;;11.40;98.10;;;;;;5050727;28;20195;-81
2022/04/24 06:30:23;;;;;;;8.23;7.30;;;11.40;98.30;;;;;;5044443;28;20225;-81
2022/04/24 06:32:53;;;;;;;8.30;7.33;;;11.50;97.80;;;;;;5028363;28;20202;-81
2022/04/24 06:35:31;;;;;;;8.23;7.40;;;11.30;98.00;;;;;;5033302;28;20206;-81
2022/04/24 06:38:00;;;;;;;9.53;7.30;;;11.50;98.20;;;;;;5035235;28;20199;-81
2022/04/24 06:40:28;;;;;;;8.27;7.57;;;11.40;98.10;;;;;;5031020;28;20215;-81
2022/04/24 06:42:56;;;;;;;7.97;7.00;;;11.50;98.10;;;;;;5035543;28;20187;-82
2022/04/24 06:45:27;;;;;;;8.63;7.60;;;11.60;97.50;;;;;;5033712;28;20214;-82
2022/04/24 06:47:55;;;;;;;8.87;7.93;;;11.30;97.80;;;;;;5044879;28;20222;-81
2022/04/24 06:50:23;;;;;;;8.97;8.10;;;11.20;98.30;;;;;;5032827;28;20242;-81
2022/04/24 06:53:00;;;;;;;10.23;7.73;;;11.40;98.40;;;;;;5042876;28;20230;-81
2022/04/24 06:55:30;;;;;;;9.07;7.77;;;11.40;98.00;;;;;;5031835;28;20554;-81
2022/04/24 06:57:58;;;;;;;8.80;8.00;;;11.60;97.60;;;;;;5048198;28;20207;-81
2022/04/24 07:00:27;;;;;;;9.43;7.87;;;11.50;97.70;;;;;;5050090;28;20219;-81
2022/04/24 07:02:55;;;;;;;9.73;8.77;;;11.70;97.60;;;;;;5052048;28;20803;-81
2022/04/24 07:05:24;;;;;;;9.17;8.07;;;11.80;97.40;;;;;;5051846;28;20540;-81
2022/04/24 07:07:52;;;;;;;8.70;7.83;;;11.70;96.80;;;;;;5049997;28;20214;-81
2022/04/24 07:10:21;;;;;;;9.03;7.87;;;11.70;96.90;;;;;;5033730;28;20226;-81
2022/04/24 07:12:53;;;;;;;8.80;7.87;;;11.60;97.10;;;;;;5031640;28;20206;-81
2022/04/24 07:16:00;;;;;;;9.57;8.53;;;11.60;97.20;;;;;;5030348;28;20218;-81
2022/04/24 07:18:30;;;;;;;10.00;7.93;;;11.60;97.20;;;;;;5028088;28;20295;-81
2022/04/24 07:20:58;;;;;;;9.43;8.43;;;11.90;97.10;;;;;;5029066;28;20703;-81
2022/04/24 07:23:25;;;;;;;8.77;7.93;;;11.90;97.10;;;;;;5032304;28;20194;-81
2022/04/24 07:25:54;;;;;;;9.67;8.67;;;11.80;97.20;;;;;;5024310;28;20199;-81
2022/04/24 07:28:22;;;;;;;8.93;8.13;;;12.00;97.20;;;;;;5029975;28;20198;-81
2022/04/24 07:30:50;;;;;;;9.87;8.13;;;12.20;96.70;;;;;;5045834;28;20233;-81
2022/04/24 07:33:17;;;;;;;9.83;8.53;;;12.10;96.20;;;;;;5030281;28;20215;-81
2022/04/24 07:35:45;;;;;;;9.93;8.53;;;12.20;96.30;;;;;;5031987;28;20199;-81
2022/04/24 07:38:13;;;;;;;8.80;7.90;;;12.20;96.10;;;;;;5024640;28;20219;-81
2022/04/24 07:40:40;;;;;;;9.67;8.77;;;12.00;96.10;;;;;;5030330;28;20227;-81
2022/04/24 07:43:10;;;;;;;9.60;8.70;;;12.20;96.20;;;;;;5047379;28;20199;-81
2022/04/24 07:45:42;;;;;;;9.63;8.30;;;12.20;96.40;;;;;;5037377;28;20199;-82
2022/04/24 07:48:13;;;;;;;9.77;8.87;;;12.30;96.20;;;;;;5029134;28;20198;-82
2022/04/24 07:50:43;;;;;;;9.37;8.47;;;12.50;96.30;;;;;;5052012;28;20222;-81
2022/04/24 07:53:12;;;;;;;9.85;8.95;;;12.40;95.50;;;;;;5048509;28;20214;-81
2022/04/24 07:55:42;;;;;;;10.30;9.20;;;12.60;95.40;;;;;;5033498;28;20199;-81
2022/04/24 07:58:12;;;;;;;10.83;8.60;;;12.70;95.20;;;;;;5029946;28;20205;-81
2022/04/24 08:00:43;;;;;;;13.23;8.97;;;12.80;95.30;;;;;;5030162;28;20216;-81
2022/04/24 08:03:12;;;;;;;10.03;9.03;;;12.50;95.30;;;;;;5032238;28;20204;-81
2022/04/24 08:05:42;;;;;;;10.15;9.13;;;12.60;95.30;;;;;;5050888;28;20203;-82
2022/04/24 08:08:14;;;;;;;10.95;9.93;;;12.70;95.10;;;;;;5033400;28;20194;-81
2022/04/24 08:10:44;;;;;;;10.20;9.20;;;12.70;95.20;;;;;;5050833;28;20230;-81
2022/04/24 08:13:13;;;;;;;10.10;9.10;;;12.60;95.10;;;;;;5033355;28;20202;-81
2022/04/24 08:15:40;;;;;;;10.47;9.43;;;12.80;95.40;;;;;;5038958;28;20187;-82
2022/04/24 08:18:17;;;;;;;10.02;8.98;;;12.90;94.90;;;;;;5053651;28;20199;-81
2022/04/24 08:20:48;;;;;;;11.15;10.05;;;12.90;95.10;;;;;;5052391;28;20219;-81
2022/04/24 08:23:18;;;;;;;10.68;9.57;;;13.00;95.00;;;;;;5036212;28;20194;-81
2022/04/24 08:25:46;;;;;;;10.67;9.50;;;13.10;94.60;;;;;;5032481;28;20202;-81
2022/04/24 08:28:15;;;;;;;10.88;9.75;;;13.10;94.50;;;;;;5038393;28;20199;-85
2022/04/24 08:30:44;;;;;;;12.57;9.43;;;13.20;95.00;;;;;;5035325;28;20219;-82
2022/04/24 08:33:12;;;;;;;11.77;10.57;;;13.40;94.50;;;;;;5034548;28;20199;-82
2022/04/24 08:35:40;;;;;;;11.57;10.48;;;13.50;93.90;;;;;;5051032;28;20211;-81
2022/04/24 08:38:08;;;;;;;12.25;10.32;;;13.60;93.60;;;;;;5046011;28;20191;-81
2022/04/24 08:40:36;;;;;;;13.23;10.10;;;13.70;93.50;;;;;;5047248;28;20231;-81
2022/04/24 08:43:04;;;;;;;10.88;9.77;;;13.80;93.40;;;;;;5035264;28;20202;-81
2022/04/24 08:45:34;;;;;;;11.00;9.65;;;13.60;93.50;;;;;;5036361;28;20206;-81
2022/04/24 08:48:04;;;;;;;10.85;9.75;;;13.70;93.60;;;;;;5035945;28;20198;-81
2022/04/24 08:50:33;;;;;;;12.20;10.32;;;13.70;93.40;;;;;;5033556;28;20235;-81
2022/04/24 08:53:01;;;;;;;12.98;10.82;;;13.70;93.30;;;;;;5054207;28;20711;-80
2022/04/24 08:55:33;;;;;;;11.63;10.48;;;13.90;93.10;;;;;;5044884;28;20565;-80
2022/04/24 08:58:06;;;;;;;10.85;9.85;;;13.80;93.40;;;;;;5030602;28;20191;-81
2022/04/24 09:00:43;;;;;;;10.98;9.95;;;14.00;94.00;;;;;;5028619;28;20226;-81
2022/04/24 09:03:14;;;;;;;12.60;10.73;;;14.20;93.50;;;;;;5034907;28;20191;-80
2022/04/24 09:05:44;;;;;;;12.13;11.02;;;14.30;93.20;;;;;;5031673;28;20203;-81
2022/04/24 09:08:13;;;;;;;11.25;10.18;;;14.30;92.80;;;;;;5031057;28;20209;-81
2022/04/24 09:10:55;;;;;;;12.38;11.23;;;14.20;92.70;;;;;;5042189;28;20230;-81
2022/04/24 09:13:30;;;;;;;12.82;11.63;;;14.40;92.70;;;;;;5031967;28;20207;-81
2022/04/24 09:16:03;;;;;;;12.57;11.38;;;14.40;92.50;;;;;;5031765;28;20681;-81
2022/04/24 09:18:46;;;;;;;13.48;11.93;;;14.40;92.30;;;;;;5033120;28;20204;-83
2022/04/24 09:21:14;;;;;;;12.80;11.70;;;14.50;92.40;;;;;;5029694;28;22817;-80
2022/04/24 09:23:47;;;;;;;15.25;13.15;;;14.50;91.90;;;;;;5042264;28;20207;-81
2022/04/24 09:26:16;;;;;;;13.73;12.32;;;14.60;91.80;;;;;;5022927;28;20206;-82
2022/04/24 09:28:45;;;;;;;14.15;12.68;;;14.60;91.80;;;;;;5031718;28;20207;-82
2022/04/24 09:31:17;;;;;;;13.60;12.02;;;14.60;92.00;;;;;;5033920;28;20221;-82
2022/04/24 09:33:55;;;;;;;13.52;12.18;;;14.70;91.60;;;;;;5031300;28;20203;-82
2022/04/24 09:36:26;;;;;;;13.25;11.95;;;14.70;91.80;;;;;;5048911;28;20209;-80
2022/04/24 09:38:56;;;;;;;13.63;12.32;;;14.70;91.40;;;;;;5048246;28;20320;-81
2022/04/24 09:41:24;;;;;;;14.18;12.77;;;14.70;91.10;;;;;;5027228;28;20693;-81
2022/04/24 09:43:52;;;;;;;13.43;12.13;;;14.70;91.50;;;;;;5051164;28;20207;-81
2022/04/24 09:46:28;;;;;;;12.40;11.05;;;14.80;91.00;;;;;;5028310;28;20207;-81
2022/04/24 09:48:58;;;;;;;12.18;10.98;;;14.90;90.90;;;;;;5044702;28;20198;-81
2022/04/24 09:51:28;;;;;;;12.65;11.48;;;15.20;91.80;;;;;;5043854;28;20235;-83
2022/04/24 09:54:02;;;;;;;13.35;12.13;;;15.20;90.00;;;;;;5048819;28;20196;-82
2022/04/24 09:56:30;;;;;;;12.90;11.63;;;15.10;89.40;;;;;;5033697;28;20207;-81
2022/04/24 09:59:01;;;;;;;12.40;11.25;;;15.20;90.20;;;;;;5027584;28;20195;-81
2022/04/24 10:01:35;;;;;;;11.75;10.50;;;15.30;90.80;;;;;;5042712;28;20214;-81
2022/04/24 10:04:08;;;;;;;11.63;10.43;;;15.40;90.20;;;;;;5046495;28;20205;-80
2022/04/24 10:06:36;;;;;;;11.50;10.43;;;15.60;90.20;;;;;;5029746;28;20877;-80
2022/04/24 10:09:09;;;;;;;11.65;10.55;;;15.70;89.40;;;;;;5046090;28;20211;-80
2022/04/24 10:11:37;;;;;;;12.40;11.30;;;15.70;87.90;;;;;;5047124;28;20215;-82
2022/04/24 10:14:08;;;;;;;12.27;11.00;;;15.80;87.10;;;;;;5037339;28;20213;-83
2022/04/24 10:17:16;;;;;;;12.65;11.30;;;15.90;89.00;;;;;;5048410;28;20227;-81
2022/04/24 10:20:00;;;;;;;13.43;11.07;;;16.10;89.00;;;;;;5039070;28;20198;-81
2022/04/24 10:22:38;;;;;;;11.52;10.35;;;16.20;88.60;;;;;;5042718;28;20199;-81
2022/04/24 10:25:06;;;;;;;12.05;10.85;;;16.30;84.50;;;;;;5026686;28;20202;-81
2022/04/24 10:27:41;;;;;;;12.88;10.45;;;16.10;84.20;;;;;;5045719;28;20214;-81
2022/04/24 10:30:26;;;;;;;12.10;10.90;;;16.10;84.10;;;;;;5043535;28;20225;-82
2022/04/24 10:33:18;;;;;;;10.82;9.82;;;16.40;83.30;;;;;;5041677;28;20195;-81
2022/04/24 10:35:51;;;;;;;11.05;10.05;;;16.40;82.20;;;;;;5039154;28;20230;-82
2022/04/24 10:38:22;;;;;;;11.48;10.35;;;16.50;84.50;;;;;;5029811;28;20207;-82
2022/04/24 10:41:05;;;;;;;12.05;10.95;;;16.60;82.10;;;;;;5022193;28;20219;-81
2022/04/24 10:43:40;;;;;;;10.75;9.85;;;16.70;81.20;;;;;;5029502;28;20206;-83
2022/04/24 10:46:22;;;;;;;11.48;10.15;;;16.80;79.80;;;;;;5027112;28;20532;-80
2022/04/24 10:48:51;;;;;;;9.68;8.77;;;16.90;78.70;;;;;;5042728;28;20565;-83
2022/04/24 10:51:29;;;;;;;10.30;9.40;;;17.40;80.30;;;;;;5031133;28;20218;-83
2022/04/24 10:54:01;;;;;;;9.63;8.63;;;17.30;78.30;;;;;;5030664;28;20199;-83
2022/04/24 10:56:31;;;;;;;10.68;9.15;;;17.70;80.20;;;;;;5029271;28;20211;-83
2022/04/24 10:59:07;;;;;;;10.88;9.77;;;17.90;80.30;;;;;;5025428;28;20657;-83
2022/04/24 11:01:54;;;;;;;9.40;8.35;;;17.70;77.50;;;;;;5031904;28;20221;-83
2022/04/24 11:04:25;;;;;;;10.80;9.70;;;17.70;75.40;;;;;;5050187;28;20700;-83
2022/04/24 11:06:54;;;;;;;10.73;9.73;;;17.50;76.40;;;;;;5032309;28;20637;-82
2022/04/24 11:09:23;;;;;;;9.52;8.70;;;17.60;74.10;;;;;;5049225;28;20211;-82
2022/04/24 11:11:52;;;;;;;10.98;10.07;;;17.80;73.50;;;;;;5032498;28;20229;-82
2022/04/24 11:14:21;;;;;;;9.65;8.80;;;17.60;72.00;;;;;;5049342;28;20202;-82
2022/04/24 11:16:50;;;;;;;10.25;9.35;;;17.50;72.90;;;;;;5030343;28;20230;-82
2022/04/24 11:19:30;;;;;;;10.93;9.93;;;17.80;73.40;;;;;;5048793;28;20206;-82
2022/04/24 11:21:59;;;;;;;10.35;9.35;;;17.50;73.60;;;;;;5024127;28;20210;-82
2022/04/24 11:24:28;;;;;;;10.38;9.30;;;17.50;73.90;;;;;;5051755;28;20203;-82
2022/04/24 11:26:55;;;;;;;10.00;9.00;;;17.80;71.50;;;;;;5035941;28;20686;-82
2022/04/24 11:29:23;;;;;;;10.30;9.27;;;17.60;72.70;;;;;;5041084;28;20203;-82
2022/04/24 11:31:52;;;;;;;10.15;9.25;;;17.50;71.60;;;;;;5045192;28;20219;-82
2022/04/24 11:34:21;;;;;;;9.80;8.90;;;17.50;70.70;;;;;;5034011;28;20672;-82
2022/04/24 11:36:55;;;;;;;10.98;9.98;;;17.60;71.70;;;;;;5035186;28;20218;-82
2022/04/24 11:39:25;;;;;;;10.52;9.60;;;17.90;74.40;;;;;;5034650;28;20213;-82
2022/04/24 11:41:55;;;;;;;9.25;8.38;;;18.20;70.40;;;;;;5044807;28;20214;-82
2022/04/24 11:50:14;;;;;;;8.38;7.30;;;18.50;67.20;;;;;;5051716;28;20199;-83
2022/04/24 11:52:46;;;;;;;9.43;7.93;;;18.40;68.10;;;;;;5057933;28;20213;-81
2022/04/24 11:55:15;;;;;;;8.57;7.72;;;18.70;67.20;;;;;;5055575;28;20194;-81
2022/04/24 11:57:42;;;;;;;16.55;9.65;;;18.50;67.30;;;;;;5033329;28;20218;-82
2022/04/24 12:00:18;;;;;;;10.48;9.10;;;18.20;64.50;;;;;;5043310;28;20230;-82
2022/04/24 12:02:46;;;;;;;9.23;8.32;;;18.40;65.30;;;;;;5029515;28;20214;-83
2022/04/24 12:05:13;;;;;;;9.52;8.73;;;18.80;64.60;;;;;;5036884;28;20207;-84
2022/04/24 12:07:43;;;;;;;10.48;9.52;;;18.70;65.00;;;;;;5044548;28;20318;-83
2022/04/24 12:10:12;;;;;;;9.80;8.90;;;18.50;64.70;;;;;;5048161;28;20219;-82
2022/04/24 12:12:47;;;;;;;11.93;10.82;;;18.40;65.90;;;;;;5047805;28;20207;-83
2022/04/24 12:15:25;;;;;;;9.32;8.52;;;18.90;65.80;;;;;;5032476;28;20210;-83
2022/04/24 12:17:54;;;;;;;10.07;9.15;;;18.90;64.60;;;;;;5048309;28;20198;-84
2022/04/24 12:20:22;;;;;;;16.38;13.48;;;19.00;65.30;;;;;;5025824;28;20226;-80
2022/04/24 12:22:55;;;;;;;14.82;11.65;;;18.90;66.10;;;;;;5053341;28;20548;-80
2022/04/24 12:25:23;;;;;;;19.48;12.43;;;18.70;63.50;;;;;;5032854;28;20532;-79
2022/04/24 12:27:59;;;;;;;9.75;8.82;;;18.60;64.10;;;;;;5033565;28;20654;-79
2022/04/24 12:30:34;;;;;;;9.32;8.45;;;18.60;60.40;;;;;;5048682;28;20235;-79
2022/04/24 12:33:05;;;;;;;8.73;8.00;;;18.80;61.00;;;;;;5049059;28;20202;-79
2022/04/24 12:35:34;;;;;;;8.35;7.65;;;19.30;61.90;;;;;;5034899;28;20551;-79
2022/04/24 12:38:15;;;;;;;7.88;7.07;;;19.60;60.40;;;;;;5030486;28;20206;-79
2022/04/24 12:40:57;;;;;;;8.50;7.65;;;19.80;59.30;;;;;;5047721;28;20223;-80
2022/04/24 12:43:27;;;;;;;8.63;7.70;;;19.90;58.50;;;;;;5048916;28;20211;-79
2022/04/24 12:46:01;;;;;;;7.93;7.03;;;20.20;57.70;;;;;;5054707;28;20206;-78
2022/04/24 12:48:47;;;;;;;7.75;7.13;;;20.40;55.50;;;;;;5028250;28;20202;-78
2022/04/24 12:51:14;;;;;;;7.68;7.07;;;20.30;54.70;;;;;;5027331;28;20218;-79
2022/04/24 12:53:58;;;;;;;8.70;8.00;;;19.90;55.60;;;;;;5033329;28;20207;-78
2022/04/24 12:56:41;;;;;;;8.20;7.50;;;18.90;56.40;;;;;;5034327;28;20211;-79
2022/04/24 12:59:12;;;;;;;8.07;7.15;;;19.60;58.00;;;;;;5029178;28;20192;-78
2022/04/24 13:01:40;;;;;;;8.57;7.72;;;20.00;58.40;;;;;;5033345;28;20215;-78
2022/04/24 13:04:08;;;;;;;8.75;7.95;;;20.20;56.90;;;;;;5035731;28;20203;-78
2022/04/24 13:06:37;;;;;;;8.88;8.18;;;19.80;55.30;;;;;;5031939;28;20202;-78
2022/04/24 13:09:08;;;;;;;9.60;8.70;;;19.10;56.30;;;;;;5041172;28;20549;-78
2022/04/24 13:11:35;;;;;;;8.73;7.82;;;18.50;59.00;;;;;;5043474;28;20236;-78
2022/04/24 13:14:04;;;;;;;8.45;7.85;;;18.60;58.90;;;;;;5030821;28;20191;-76
2022/04/24 13:19:28;;;;;;;8.90;7.60;;;18.70;59.70;;;;;;5034598;28;20206;-80
2022/04/24 13:21:55;;;;;;;8.07;7.38;;;19.30;58.70;;;;;;5034910;28;20214;-79
2022/04/24 13:24:37;;;;;;;8.43;7.70;;;19.50;57.20;;;;;;5036452;28;20199;-78
2022/04/24 13:27:07;;;;;;;9.52;8.52;;;19.10;56.40;;;;;;5032294;28;20206;-80
2022/04/24 13:29:38;;;;;;;8.77;8.07;;;19.30;58.00;;;;;;5028309;28;20199;-82
2022/04/24 13:32:07;;;;;;;7.75;7.15;;;18.60;55.70;;;;;;5044653;28;20573;-83